Terminal Aerodrome Forecast
Issued by NWS Albany, NY

Home | Current Version | Previous Version | Text Only | Print | Product List | Glossary On
Versions: 1 2 3 4 5 6 7 8 9 10 11 12 13 14 15 16 17 18 19 20 21
000
FTUS41 KALY 280500
TAFGFL
TAF
KGFL 280532Z 2806/2906 36008KT P6SM VCSH BKN030 OVC060
     FM281300 35006KT P6SM SCT025 BKN080
     FM281700 02006KT P6SM SCT150
     FM282200 00000KT P6SM FEW250=

USA.gov is the U.S. government's official web portal to all federal, state and local government web resources and services.